Gunnison, CO

1:28 AM MDT on September 16, 2014 (GMT -0600)
Aspen-Pitkin County / Sardy Field | Change Station
CLOSE
Current Station
Airport
Location: Aspen,
Elevation: 7822 ft
Nearby Weather Stations

Elev 7822 ft 39.23 °N, 106.87 °W | Updated 35 minutes ago

Clear
Clear
49 °F
Feels Like 49 °F
N
6
Wind Variable Wind from SSW

Today
High -- | Low -- °F
--% Chance of Precip.
Yesterday
High -- | Low -- °F
Precip. -- in
6:50 AM 7:14 PM
Waning Gibbous, 48% visible
Pressure 30.08 in
Visibility 10.0 miles
Clouds Clear
Dew Point 36 °F
Humidity 61%
Rainfall 0.00 in
Snow Depth Not available.
UV 0 out of 12
Pollen 5.60 out of 12
Air Quality Not available.
Flu Activity Not available.
METAR KASE 160653Z 21005KT 10SM CLR 09/02 A3040 RMK AO2 SLP184 T00940022 402440056

More Conditions Fewer Conditions

Pressure 30.08 in
Visibility 10.0 miles
Clouds Clear
Dew Point 36 °F
Humidity 61%
Rainfall 0.00 in
Snow Depth Not available.
UV 0 out of 12
Pollen 5.60 out of 12
Air Quality Not available.
Flu Activity Not available.
METAR KASE 160653Z 21005KT 10SM CLR 09/02 A3040 RMK AO2 SLP184 T00940022 402440056

More Conditions Fewer Conditions

10-Day Weather Forecast

Almanac

Astronomy

Sep. 16, 2014 Rise Set
Actual Time 6:50 AM MDT 7:14 PM MDT
Civil Twilight 6:23 AM MDT 7:40 PM MDT
Nautical Twilight 5:52 AM MDT 8:11 PM MDT
Astronomical Twilight 5:20 AM MDT 8:43 PM MDT
Moon 12:05 AM MDT 2:37 PM MDT
Length of Visible Light 13h 17m
Length of Day
12h 23m
Tomorrow will be 2m 29s shorter.
Waning Gibbous, 48% of the Moon is Illuminated
Today
Waning Gibbous
Sep 24
New
Oct 1
First Quarter
Oct 8
Full
Oct 15
Last Quarter

Today's Extremes

State Highs State Lows

Community

WunderPhotos

Upload Photos

1,753,699 photos uploaded!

Nearby

Snow Depth

Station Depth Elevation
Buckskin Joe 0 in 11150 ft
Ute Creek 0 in 10650 ft
Grayback 1 in 11620 ft
Scotch Creek 0 in 9100 ft
Echo Lake 0 in 10600 ft

Earthquake Activity

City Distance Mag. Time & Date
No recent earthquake activity has been reported nearby.
Minimum magnitude displayed is 2.5.

Coastal Water Temperatures

Place Temperature
No Stations Reporting

Nearby Weather Stations